createdAt,value
2018-09-06T00:01:15.381Z,15.70
2018-09-06T00:03:43.958Z,15.70
2018-09-06T00:06:12.473Z,15.70
2018-09-06T00:08:41.081Z,15.70
2018-09-06T00:11:09.656Z,15.70
2018-09-06T00:13:38.284Z,15.70
2018-09-06T00:16:06.885Z,15.70
2018-09-06T00:18:35.463Z,15.70
2018-09-06T00:21:05.047Z,15.60
2018-09-06T00:23:33.741Z,15.60
2018-09-06T00:26:09.108Z,15.60
2018-09-06T00:28:37.667Z,15.60
2018-09-06T00:31:06.358Z,15.60
2018-09-06T00:33:38.863Z,15.50
2018-09-06T00:36:07.377Z,15.50
2018-09-06T00:38:35.885Z,15.40
2018-09-06T00:41:04.473Z,15.40
2018-09-06T00:43:33.051Z,15.40
2018-09-06T00:46:03.089Z,15.40
2018-09-06T00:48:31.748Z,15.40
2018-09-06T00:51:00.349Z,15.30
2018-09-06T00:53:28.923Z,15.30
2018-09-06T00:55:57.506Z,15.30
2018-09-06T00:58:26.031Z,15.30
2018-09-06T01:00:54.670Z,15.30
2018-09-06T01:03:23.234Z,15.30
2018-09-06T01:05:51.770Z,15.30
2018-09-06T01:08:20.351Z,15.30
2018-09-06T01:10:48.898Z,15.30
2018-09-06T01:13:17.398Z,15.30
2018-09-06T01:15:45.986Z,15.20
2018-09-06T01:18:14.490Z,15.30
2018-09-06T01:20:43.053Z,15.30
2018-09-06T01:23:11.626Z,15.30
2018-09-06T01:25:45.343Z,15.30
2018-09-06T01:28:13.902Z,15.30
2018-09-06T01:30:42.435Z,15.20
2018-09-06T01:33:11.026Z,15.20
2018-09-06T01:35:43.999Z,15.20
2018-09-06T01:38:12.531Z,15.20
2018-09-06T01:40:41.090Z,15.20
2018-09-06T01:43:09.662Z,15.10
2018-09-06T01:45:38.158Z,15.20
2018-09-06T01:51:18.939Z,15.20
2018-09-06T01:53:49.711Z,15.10
2018-09-06T01:56:21.248Z,15.10
2018-09-06T01:58:50.682Z,15.20
2018-09-06T02:01:21.610Z,15.10
2018-09-06T02:03:56.116Z,15.10
2018-09-06T02:06:27.160Z,15.10
2018-09-06T02:08:57.491Z,15.00
2018-09-06T02:11:33.833Z,14.90
2018-09-06T02:14:03.950Z,14.90
2018-09-06T02:16:33.935Z,14.90
2018-09-06T02:19:03.451Z,14.80
2018-09-06T02:21:34.394Z,14.80
2018-09-06T02:24:06.467Z,14.80
2018-09-06T02:26:36.887Z,14.80
2018-09-06T02:29:07.009Z,14.70
2018-09-06T02:31:36.515Z,14.70
2018-09-06T02:34:05.775Z,14.70
2018-09-06T02:36:36.047Z,14.70
2018-09-06T02:39:06.439Z,14.70
2018-09-06T02:41:35.526Z,14.60
2018-09-06T02:44:06.411Z,14.60
2018-09-06T02:46:35.047Z,14.50
2018-09-06T02:49:04.339Z,14.50
2018-09-06T02:51:33.849Z,14.50
2018-09-06T02:54:04.107Z,14.40
2018-09-06T02:56:32.588Z,14.40
2018-09-06T02:59:02.490Z,14.40
2018-09-06T03:01:31.027Z,14.30
2018-09-06T03:04:01.388Z,14.30
2018-09-06T03:10:19.656Z,14.20
2018-09-06T03:12:48.978Z,14.20
2018-09-06T03:15:19.271Z,14.20
2018-09-06T03:17:50.448Z,14.10
2018-09-06T03:20:21.434Z,14.10
2018-09-06T03:22:51.192Z,14.10
2018-09-06T03:25:24.069Z,14.10
2018-09-06T03:27:53.127Z,14.10
2018-09-06T03:30:23.207Z,14.00
2018-09-06T03:32:54.099Z,14.00
2018-09-06T03:35:22.635Z,14.00
2018-09-06T03:37:51.999Z,14.00
2018-09-06T03:40:20.535Z,13.90
2018-09-06T03:42:50.541Z,13.90
2018-09-06T03:47:53.887Z,13.90
2018-09-06T03:50:22.453Z,13.90
2018-09-06T03:52:51.352Z,13.80
2018-09-06T03:55:20.818Z,13.90
2018-09-06T03:57:51.490Z,13.80
2018-09-06T04:00:22.664Z,13.80
2018-09-06T04:02:52.148Z,13.80
2018-09-06T04:05:24.034Z,13.80
2018-09-06T04:07:52.572Z,13.70
2018-09-06T04:10:22.539Z,13.70
2018-09-06T04:12:51.095Z,13.70
2018-09-06T04:15:24.495Z,13.70
2018-09-06T04:17:55.211Z,13.70
2018-09-06T04:20:23.769Z,13.60
2018-09-06T04:22:56.737Z,13.60
2018-09-06T04:25:29.983Z,13.60
2018-09-06T04:28:02.901Z,13.60
2018-09-06T04:33:29.827Z,13.50
2018-09-06T04:35:59.156Z,13.60
2018-09-06T04:38:28.543Z,13.60
2018-09-06T04:40:57.087Z,13.50
2018-09-06T04:43:26.205Z,13.60
2018-09-06T04:45:54.782Z,13.60
2018-09-06T04:48:24.782Z,13.60
2018-09-06T04:50:53.358Z,13.60
2018-09-06T04:53:22.666Z,13.60
2018-09-06T04:55:51.217Z,13.60
2018-09-06T04:58:19.879Z,13.60
2018-09-06T05:00:48.394Z,13.60
2018-09-06T05:03:17.034Z,13.60
2018-09-06T05:05:45.570Z,13.70
2018-09-06T05:08:14.708Z,13.70
2018-09-06T05:10:43.926Z,13.70
2018-09-06T05:13:12.467Z,13.80
2018-09-06T05:15:41.136Z,13.80
2018-09-06T05:18:10.646Z,13.80
2018-09-06T05:20:39.295Z,13.90
2018-09-06T05:23:07.831Z,13.90
2018-09-06T05:25:36.382Z,13.90
2018-09-06T05:28:06.098Z,14.00
2018-09-06T05:30:34.722Z,14.10
2018-09-06T05:33:04.858Z,14.10
2018-09-06T05:35:33.452Z,14.10
2018-09-06T05:38:02.027Z,14.20
2018-09-06T05:40:30.558Z,14.20
2018-09-06T05:42:59.103Z,14.30
2018-09-06T05:45:27.662Z,14.30
2018-09-06T05:48:00.189Z,14.30
2018-09-06T05:50:30.387Z,14.40
2018-09-06T05:53:01.372Z,14.50
2018-09-06T05:55:30.072Z,14.60
2018-09-06T05:57:58.650Z,14.60
2018-09-06T06:00:32.521Z,14.60
2018-09-06T06:03:03.092Z,14.70
2018-09-06T06:05:31.615Z,14.80
2018-09-06T06:08:11.204Z,14.90
2018-09-06T06:10:40.012Z,15.00
2018-09-06T06:13:08.530Z,15.10
2018-09-06T06:15:37.155Z,15.10
2018-09-06T06:18:05.826Z,15.20
2018-09-06T06:20:37.052Z,15.30
2018-09-06T06:23:05.670Z,15.40
2018-09-06T06:25:36.638Z,15.50
2018-09-06T06:28:05.872Z,15.60
2018-09-06T06:30:34.448Z,15.70
2018-09-06T06:33:04.184Z,15.80
2018-09-06T06:35:40.444Z,15.90
2018-09-06T06:38:14.041Z,16.00
2018-09-06T06:40:42.605Z,16.20
2018-09-06T06:43:11.228Z,16.30
2018-09-06T06:45:39.750Z,16.40
2018-09-06T06:48:08.364Z,16.50
2018-09-06T06:50:37.032Z,16.60
2018-09-06T06:53:05.610Z,16.80
2018-09-06T06:55:34.106Z,16.90
2018-09-06T06:58:02.715Z,17.00
2018-09-06T07:00:35.459Z,17.10
2018-09-06T07:03:04.044Z,17.20
2018-09-06T07:05:32.532Z,17.30
2018-09-06T07:08:01.031Z,17.40
2018-09-06T07:13:04.105Z,17.60
2018-09-06T07:15:32.720Z,17.70
2018-09-06T07:18:01.303Z,17.80
2018-09-06T07:20:38.610Z,17.90
2018-09-06T07:23:14.884Z,18.00
2018-09-06T07:25:43.486Z,18.20
2018-09-06T07:28:12.002Z,18.30
2018-09-06T07:30:40.636Z,18.40
2018-09-06T07:33:09.122Z,18.50
2018-09-06T07:35:37.688Z,18.60
2018-09-06T07:38:06.267Z,18.70
2018-09-06T07:40:34.810Z,18.90
2018-09-06T07:43:03.330Z,19.00
2018-09-06T07:45:31.928Z,19.10
2018-09-06T07:48:00.450Z,19.20
2018-09-06T07:50:29.103Z,19.30
2018-09-06T07:52:57.608Z,19.40
2018-09-06T07:55:26.174Z,19.50
2018-09-06T07:57:54.746Z,19.70
2018-09-06T08:00:23.339Z,19.80
2018-09-06T08:02:52.018Z,19.80
2018-09-06T08:05:20.611Z,19.90
2018-09-06T08:07:49.116Z,20.10
2018-09-06T08:10:17.664Z,20.10
2018-09-06T08:12:46.244Z,20.10
2018-09-06T08:15:14.728Z,20.20
2018-09-06T08:17:43.279Z,20.30
2018-09-06T08:20:11.834Z,20.40
2018-09-06T08:22:40.418Z,20.50
2018-09-06T08:25:08.991Z,20.60
2018-09-06T08:27:37.532Z,20.70
2018-09-06T08:30:06.040Z,20.80
2018-09-06T08:32:34.596Z,20.90
2018-09-06T08:35:03.130Z,20.90
2018-09-06T08:37:31.680Z,21.00
2018-09-06T08:40:00.200Z,21.20
2018-09-06T08:42:28.792Z,21.30
2018-09-06T08:44:57.308Z,21.40
2018-09-06T08:47:25.924Z,21.50
2018-09-06T08:49:54.427Z,21.70
2018-09-06T08:52:23.116Z,21.90
2018-09-06T08:54:51.623Z,22.00
2018-09-06T08:57:20.192Z,22.10
2018-09-06T08:59:48.717Z,22.20
2018-09-06T09:02:17.364Z,22.30
2018-09-06T09:04:45.899Z,22.30
2018-09-06T09:07:15.132Z,22.40
2018-09-06T09:09:44.387Z,22.40
2018-09-06T09:12:12.930Z,22.50
2018-09-06T09:14:41.548Z,22.60
2018-09-06T09:17:10.081Z,22.80
2018-09-06T09:19:38.675Z,22.90
2018-09-06T09:22:07.287Z,23.00
2018-09-06T09:24:35.943Z,23.20
2018-09-06T09:27:04.512Z,23.30
2018-09-06T09:29:33.052Z,23.30
2018-09-06T09:32:01.592Z,23.50
2018-09-06T09:34:30.164Z,23.60
2018-09-06T09:36:58.682Z,23.70
2018-09-06T09:39:27.250Z,23.80
2018-09-06T09:41:55.761Z,23.60
2018-09-06T09:44:24.517Z,23.70
2018-09-06T09:49:20.796Z,24.10
2018-09-06T09:51:49.331Z,24.10
2018-09-06T09:54:17.890Z,24.00
2018-09-06T09:56:46.446Z,23.90
2018-09-06T09:59:15.010Z,24.00
2018-09-06T10:01:47.796Z,24.20
2018-09-06T10:17:16.538Z,24.70
2018-09-06T10:19:45.092Z,24.60
2018-09-06T10:22:13.643Z,24.60
2018-09-06T10:24:42.195Z,24.70
2018-09-06T10:27:10.816Z,24.80
2018-09-06T10:29:39.372Z,24.80
2018-09-06T10:32:07.895Z,24.70
2018-09-06T10:34:36.457Z,24.80
2018-09-06T10:37:05.023Z,25.00
2018-09-06T10:39:33.584Z,25.20
2018-09-06T10:42:02.131Z,25.20
2018-09-06T10:44:30.703Z,25.10
2018-09-06T10:46:59.281Z,25.10
2018-09-06T10:49:27.883Z,25.20
2018-09-06T10:51:56.442Z,25.10
2018-09-06T10:54:25.061Z,25.10
2018-09-06T10:56:53.690Z,25.10
2018-09-06T10:59:22.277Z,25.10
2018-09-06T11:01:50.916Z,25.40
2018-09-06T11:04:19.478Z,25.60
2018-09-06T11:06:49.133Z,25.60
2018-09-06T11:09:17.786Z,25.70
2018-09-06T11:11:46.364Z,25.80
2018-09-06T11:14:14.884Z,25.70
2018-09-06T11:16:43.466Z,25.70
2018-09-06T11:19:12.001Z,25.80
2018-09-06T11:24:14.631Z,25.90
2018-09-06T11:26:43.207Z,26.00
2018-09-06T11:29:11.713Z,26.10
2018-09-06T11:31:40.332Z,26.20
2018-09-06T11:34:08.900Z,26.20
2018-09-06T11:36:37.655Z,26.20
2018-09-06T11:39:08.617Z,26.10
2018-09-06T11:41:37.655Z,26.00
2018-09-06T11:44:06.785Z,26.20
2018-09-06T11:46:35.468Z,26.40
2018-09-06T11:49:04.227Z,26.40
2018-09-06T11:51:32.887Z,26.10
2018-09-06T11:54:01.428Z,25.90
2018-09-06T11:56:30.116Z,26.00
2018-09-06T11:58:58.651Z,26.00
2018-09-06T12:01:27.440Z,26.00
2018-09-06T12:03:56.058Z,26.20
2018-09-06T12:06:24.593Z,26.30
2018-09-06T12:08:53.326Z,26.40
2018-09-06T12:11:21.883Z,26.60
2018-09-06T12:13:50.556Z,26.70
2018-09-06T12:16:19.149Z,26.70
2018-09-06T12:18:47.759Z,26.70
2018-09-06T12:21:16.389Z,26.70
2018-09-06T12:23:45.007Z,26.80
2018-09-06T12:26:13.535Z,26.90
2018-09-06T12:28:43.097Z,26.90
2018-09-06T12:31:11.624Z,26.90
2018-09-06T12:33:40.341Z,26.80
2018-09-06T12:36:08.913Z,26.80
2018-09-06T12:38:37.577Z,26.70
2018-09-06T12:41:06.404Z,26.70
2018-09-06T12:46:09.392Z,26.80
2018-09-06T12:48:38.051Z,26.70
2018-09-06T12:51:06.719Z,26.70
2018-09-06T12:53:35.307Z,26.70
2018-09-06T12:56:03.951Z,26.70
2018-09-06T12:58:32.532Z,26.70
2018-09-06T13:06:09.846Z,27.10
2018-09-06T13:08:38.338Z,26.80
2018-09-06T13:11:06.934Z,26.70
2018-09-06T13:13:35.531Z,26.70
2018-09-06T13:16:04.061Z,26.70
2018-09-06T13:18:32.720Z,26.80
2018-09-06T13:21:01.171Z,26.90
2018-09-06T13:23:30.971Z,27.10
2018-09-06T13:25:59.451Z,27.10
2018-09-06T13:28:28.043Z,26.80
2018-09-06T13:30:56.604Z,26.80
2018-09-06T13:33:25.158Z,26.90
2018-09-06T13:35:53.650Z,26.90
2018-09-06T13:38:22.202Z,26.80
2018-09-06T13:40:50.710Z,26.80
2018-09-06T13:43:19.749Z,26.90
2018-09-06T13:45:48.277Z,27.00
2018-09-06T13:48:17.106Z,26.90
2018-09-06T13:50:45.705Z,27.00
2018-09-06T13:53:14.249Z,26.70
2018-09-06T13:55:42.756Z,26.80
2018-09-06T13:58:11.293Z,26.80
2018-09-06T14:03:14.118Z,26.40
2018-09-06T14:05:42.801Z,26.30
2018-09-06T14:08:11.269Z,26.10
2018-09-06T14:13:14.002Z,25.90
2018-09-06T14:15:42.552Z,25.90
2018-09-06T14:18:11.050Z,25.90
2018-09-06T14:20:39.616Z,25.80
2018-09-06T14:23:08.120Z,25.80
2018-09-06T14:25:36.694Z,25.80
2018-09-06T14:28:05.244Z,25.90
2018-09-06T14:30:33.802Z,25.90
2018-09-06T14:33:02.301Z,25.90
2018-09-06T14:35:30.847Z,25.90
2018-09-06T14:37:59.360Z,25.90
2018-09-06T14:40:27.924Z,25.70
2018-09-06T14:42:56.462Z,25.70
2018-09-06T14:45:25.077Z,25.50
2018-09-06T14:47:53.569Z,25.60
2018-09-06T14:50:22.099Z,25.70
2018-09-06T14:52:50.712Z,25.70
2018-09-06T14:55:19.446Z,25.70
2018-09-06T14:57:47.973Z,25.70
2018-09-06T15:00:16.542Z,25.50
2018-09-06T15:02:45.079Z,25.50
2018-09-06T15:05:13.591Z,25.50
2018-09-06T15:07:42.144Z,25.50
2018-09-06T15:10:10.692Z,25.50
2018-09-06T15:12:39.220Z,25.40
2018-09-06T15:15:07.730Z,25.40
2018-09-06T15:17:36.297Z,25.30
2018-09-06T15:20:05.054Z,25.20
2018-09-06T15:22:33.662Z,25.10
2018-09-06T15:25:02.175Z,25.10
2018-09-06T15:27:30.742Z,25.10
2018-09-06T15:29:59.259Z,25.00
2018-09-06T15:32:27.826Z,24.90
2018-09-06T15:34:56.314Z,24.90
2018-09-06T15:37:24.846Z,24.80
2018-09-06T15:39:53.320Z,24.80
2018-09-06T15:42:21.837Z,24.70
2018-09-06T15:44:50.353Z,24.60
2018-09-06T15:47:18.929Z,24.50
2018-09-06T15:49:47.560Z,24.40
2018-09-06T15:52:16.028Z,24.40
2018-09-06T15:54:44.636Z,24.30
2018-09-06T15:57:13.608Z,24.30
2018-09-06T15:59:42.205Z,24.20
2018-09-06T16:02:10.740Z,24.10
2018-09-06T16:04:39.270Z,24.00
2018-09-06T16:07:07.798Z,23.90
2018-09-06T16:09:39.935Z,23.90
2018-09-06T16:12:08.545Z,23.80
2018-09-06T16:14:37.125Z,23.80
2018-09-06T16:17:05.654Z,23.70
2018-09-06T16:19:34.472Z,23.60
2018-09-06T16:22:03.018Z,23.60
2018-09-06T16:24:31.592Z,23.50
2018-09-06T16:27:00.140Z,23.50
2018-09-06T16:29:28.700Z,23.40
2018-09-06T16:31:57.247Z,23.30
2018-09-06T16:34:25.880Z,23.20
2018-09-06T16:36:54.394Z,23.10
2018-09-06T16:44:30.748Z,22.70
2018-09-06T16:46:59.274Z,22.60
2018-09-06T16:49:27.800Z,22.50
2018-09-06T16:51:56.408Z,22.40
2018-09-06T16:54:24.888Z,22.30
2018-09-06T16:56:53.470Z,22.20
2018-09-06T16:59:21.964Z,22.00
2018-09-06T17:01:50.521Z,21.90
2018-09-06T17:04:19.098Z,21.80
2018-09-06T17:06:47.700Z,21.70
2018-09-06T17:09:16.205Z,21.50
2018-09-06T17:14:18.862Z,21.40
2018-09-06T17:16:47.406Z,21.30
2018-09-06T17:19:15.941Z,21.10
2018-09-06T17:21:44.637Z,21.10
2018-09-06T17:24:13.198Z,21.00
2018-09-06T17:26:41.860Z,20.90
2018-09-06T17:29:10.542Z,20.80
2018-09-06T17:31:39.127Z,20.60
2018-09-06T17:34:09.162Z,20.50
2018-09-06T17:36:37.932Z,20.50
2018-09-06T17:41:43.308Z,20.30
2018-09-06T17:44:12.026Z,20.20
2018-09-06T17:46:40.579Z,20.20
2018-09-06T17:49:09.238Z,20.10
2018-09-06T17:51:37.844Z,20.00
2018-09-06T17:54:06.395Z,20.00
2018-09-06T17:56:34.980Z,19.80
2018-09-06T17:59:03.572Z,19.80
2018-09-06T18:01:39.461Z,19.70
2018-09-06T18:04:08.576Z,19.70
2018-09-06T18:06:37.667Z,19.60
2018-09-06T18:09:09.638Z,19.50
2018-09-06T18:11:38.329Z,19.40
2018-09-06T18:14:06.919Z,19.40
2018-09-06T18:16:36.663Z,19.40
2018-09-06T18:19:05.331Z,19.30
2018-09-06T18:21:34.760Z,19.30
2018-09-06T18:24:04.844Z,19.30
2018-09-06T18:26:33.490Z,19.20
2018-09-06T18:29:03.124Z,19.20
2018-09-06T18:31:31.826Z,19.10
2018-09-06T18:34:00.416Z,19.10
2018-09-06T18:36:28.956Z,19.10
2018-09-06T18:38:58.586Z,19.10
2018-09-06T18:41:27.153Z,19.00
2018-09-06T18:43:55.902Z,19.00
2018-09-06T18:46:24.418Z,19.00
2018-09-06T18:48:53.804Z,19.10
2018-09-06T18:51:22.497Z,19.00
2018-09-06T18:53:51.153Z,19.00
2018-09-06T18:56:20.282Z,19.00
2018-09-06T18:58:48.853Z,19.00
2018-09-06T19:01:17.535Z,19.00
2018-09-06T19:03:46.100Z,19.00
2018-09-06T19:06:17.791Z,19.00
2018-09-06T19:08:46.420Z,19.00
2018-09-06T19:16:24.862Z,18.90
2018-09-06T19:18:53.511Z,18.90
2018-09-06T19:21:23.997Z,18.80
2018-09-06T19:23:53.108Z,18.80
2018-09-06T19:26:21.689Z,18.80
2018-09-06T19:28:50.910Z,18.80
2018-09-06T19:33:56.159Z,18.70
2018-09-06T19:36:25.321Z,18.70
2018-09-06T19:38:54.389Z,18.60
2018-09-06T19:41:23.083Z,18.50
2018-09-06T19:43:52.623Z,18.50
2018-09-06T19:46:21.596Z,18.50
2018-09-06T19:48:51.840Z,18.40
2018-09-06T19:51:22.330Z,18.40
2018-09-06T19:53:52.098Z,18.30
2018-09-06T19:56:20.612Z,18.30
2018-09-06T19:58:49.278Z,18.30
2018-09-06T20:01:18.084Z,18.20
2018-09-06T20:03:46.995Z,18.20
2018-09-06T20:06:15.600Z,18.10
2018-09-06T20:08:44.979Z,18.10
2018-09-06T20:11:13.556Z,18.00
2018-09-06T20:13:43.400Z,18.00
2018-09-06T20:16:12.034Z,18.00
2018-09-06T20:18:41.037Z,17.90
2018-09-06T20:21:09.643Z,17.90
2018-09-06T20:23:38.256Z,17.80
2018-09-06T20:26:06.981Z,17.80
2018-09-06T20:28:36.255Z,17.80
2018-09-06T20:31:04.829Z,17.80
2018-09-06T20:33:33.364Z,17.70
2018-09-06T20:36:04.607Z,17.70
2018-09-06T20:38:33.123Z,17.70
2018-09-06T20:41:07.459Z,17.70
2018-09-06T20:43:36.033Z,17.70
2018-09-06T20:46:04.638Z,17.60
2018-09-06T20:48:33.135Z,17.60
2018-09-06T20:51:03.698Z,17.60
2018-09-06T20:53:32.257Z,17.60
2018-09-06T20:56:00.760Z,17.50
2018-09-06T20:58:29.300Z,17.50
2018-09-06T21:00:57.786Z,17.50
2018-09-06T21:03:26.349Z,17.40
2018-09-06T21:05:54.889Z,17.40
2018-09-06T21:08:23.600Z,17.40
2018-09-06T21:10:52.129Z,17.40
2018-09-06T21:13:20.632Z,17.40
2018-09-06T21:15:49.196Z,17.40
2018-09-06T21:18:17.756Z,17.40
2018-09-06T21:20:46.504Z,17.30
2018-09-06T21:23:15.007Z,17.30
2018-09-06T21:25:43.576Z,17.30
2018-09-06T21:28:12.131Z,17.40
2018-09-06T21:30:41.841Z,17.40
2018-09-06T21:33:10.363Z,17.40
2018-09-06T21:35:38.940Z,17.40
2018-09-06T21:38:07.481Z,17.40
2018-09-06T21:43:10.258Z,17.30
2018-09-06T21:45:38.782Z,17.30
2018-09-06T21:58:48.445Z,17.30
2018-09-06T22:01:17.012Z,17.40
2018-09-06T22:03:50.951Z,17.40
2018-09-06T22:06:19.522Z,17.40
2018-09-06T22:08:48.055Z,17.40
2018-09-06T22:11:16.602Z,17.40
2018-09-06T22:13:45.183Z,17.40
2018-09-06T22:16:13.717Z,17.30
2018-09-06T22:18:42.250Z,17.30
2018-09-06T22:21:10.800Z,17.30
2018-09-06T22:23:39.368Z,17.30
2018-09-06T22:26:07.910Z,17.30
2018-09-06T22:28:36.542Z,17.30
2018-09-06T22:31:05.350Z,17.30
2018-09-06T22:33:33.903Z,17.20
2018-09-06T22:36:02.784Z,17.30
2018-09-06T22:38:31.690Z,17.20
2018-09-06T22:41:00.274Z,17.20
2018-09-06T22:43:28.814Z,17.20
2018-09-06T22:45:57.418Z,17.20
2018-09-06T22:48:25.930Z,17.20
2018-09-06T22:50:54.458Z,17.20
2018-09-06T22:53:23.006Z,17.10
2018-09-06T22:55:51.614Z,17.10
2018-09-06T22:58:20.216Z,17.10
2018-09-06T23:00:48.790Z,17.10
2018-09-06T23:03:22.679Z,17.00
2018-09-06T23:05:51.256Z,17.00
2018-09-06T23:08:19.856Z,17.00
2018-09-06T23:10:48.380Z,16.90
2018-09-06T23:13:16.943Z,16.90
2018-09-06T23:15:45.492Z,16.90
2018-09-06T23:18:14.074Z,16.80
2018-09-06T23:20:42.664Z,16.80
2018-09-06T23:23:11.226Z,16.80
2018-09-06T23:25:39.718Z,16.70
2018-09-06T23:28:08.250Z,16.70
2018-09-06T23:30:36.736Z,16.70
2018-09-06T23:33:05.321Z,16.60
2018-09-06T23:35:33.861Z,16.60
2018-09-06T23:38:03.422Z,16.50
2018-09-06T23:40:37.237Z,16.50
2018-09-06T23:43:05.826Z,16.50
2018-09-06T23:45:34.302Z,16.50
2018-09-06T23:48:03.067Z,16.40
2018-09-06T23:50:31.578Z,16.40
2018-09-06T23:53:00.143Z,16.30
2018-09-06T23:55:28.653Z,16.30
2018-09-06T23:57:57.243Z,16.30
